Terminal Aerodrome Forecast
Issued by NWS

Home | Current Version | Previous Version | Text Only | Print | Product List | Glossary Off
Versions: 1 2 3 4 5 6 7 8 9 10 11 12 13 14 15 16 17 18 19 20 21 22 23 24 25 26 27 28 29

769
FTUS43 KLOT 292058 AAA
TAFDPA
TAF AMD
KDPA 292058Z 2921/3018 19013G20KT P6SM SCT030 BKN100 BKN200
     FM300000 19009KT P6SM BKN090
     FM300600 24006KT P6SM SCT250
     FM301500 24010KT P6SM SCT200
     FM301700 24013G21KT P6SM SCT030 BKN050=

USA.gov is the U.S. government's official web portal to all federal, state and local government web resources and services.